Time;durP1;ratioP1;P1;durP2;ratioP2;P2;SDS_P1;SDS_P2;PMS_P1;PMS_P2;Temp;Humidity;BMP_temperature;BMP_pressure;BME280_temperature;BME280_humidity;BME280_pressure;Samples;Min_cycle;Max_cycle;Signal;HPM_P1;HPM_P2
2022/04/05 00:01:22;;;;;;;9.60;6.50;;;;;;;2.81;97.48;95629.00;5118975;27;20038;-75
2022/04/05 00:03:48;;;;;;;10.87;6.27;;;;;;;2.85;97.24;95621.81;5109721;27;20458;-76
2022/04/05 00:06:13;;;;;;;11.17;6.43;;;;;;;2.85;97.92;95614.03;5112351;27;20606;-76
2022/04/05 00:08:39;;;;;;;9.67;6.00;;;;;;;2.85;97.88;95619.22;5109396;27;20388;-75
2022/04/05 00:11:04;;;;;;;13.33;6.73;;;;;;;2.81;99.54;95629.00;5105732;28;20055;-75
2022/04/05 00:13:31;;;;;;;9.83;5.40;;;;;;;2.81;99.00;95616.03;5101006;27;20049;-75
2022/04/05 00:15:57;;;;;;;12.10;6.37;;;;;;;2.79;98.75;95609.34;5089046;28;20027;-75
2022/04/05 00:18:23;;;;;;;10.20;6.70;;;;;;;2.78;99.78;95602.47;5110314;27;20453;-75
2022/04/05 00:20:52;;;;;;;9.93;6.47;;;;;;;2.82;99.02;95606.50;5105107;27;20107;-75
2022/04/05 00:23:19;;;;;;;8.77;6.20;;;;;;;2.81;99.94;95603.03;5081981;28;20036;-74
2022/04/05 00:25:44;;;;;;;11.00;6.27;;;;;;;2.77;99.89;95601.66;5108773;27;20468;-77
2022/04/05 00:28:10;;;;;;;9.47;6.13;;;;;;;2.79;100.00;95593.75;5107913;27;20905;-77
2022/04/05 00:30:36;;;;;;;10.37;7.07;;;;;;;2.78;100.00;95597.28;5108485;27;20032;-74
2022/04/05 00:33:02;;;;;;;9.40;6.40;;;;;;;2.81;100.00;95597.84;5102800;28;20027;-74
2022/04/05 00:35:27;;;;;;;17.63;6.60;;;;;;;2.82;100.00;95598.69;5113333;27;20096;-75
2022/04/05 00:37:53;;;;;;;9.93;6.40;;;;;;;2.77;100.00;95591.28;5104902;27;20505;-75
2022/04/05 00:40:20;;;;;;;10.03;6.70;;;;;;;2.73;100.00;95589.06;5112924;27;20038;-74
2022/04/05 00:42:45;;;;;;;10.43;6.53;;;;;;;2.76;100.00;95588.81;5105746;27;20080;-74
2022/04/05 00:45:15;;;;;;;12.47;6.67;;;;;;;2.81;100.00;95584.06;5115622;27;20480;-75
2022/04/05 00:47:49;;;;;;;10.77;6.57;;;;;;;2.77;100.00;95585.25;5102106;28;20039;-74
2022/04/05 00:50:17;;;;;;;;;;;;;;;2.73;100.00;95563.09;5102981;28;20444;-75
2022/04/05 00:52:43;;;;;;;9.23;5.80;;;;;;;2.79;100.00;95571.22;5101881;27;19916;-75
2022/04/05 00:55:11;;;;;;;11.67;6.30;;;;;;;2.79;100.00;95565.19;5081965;28;20548;-74
2022/04/05 00:57:37;;;;;;;11.40;7.00;;;;;;;2.75;100.00;95571.56;5095277;28;20067;-75
2022/04/05 01:00:08;;;;;;;10.33;6.03;;;;;;;2.75;100.00;95564.63;5111105;27;20467;-74
2022/04/05 01:02:38;;;;;;;10.47;6.40;;;;;;;2.79;100.00;95567.78;5106461;28;20480;-74
2022/04/05 01:05:06;;;;;;;9.57;6.33;;;;;;;2.75;100.00;95566.38;5109024;27;20449;-75
2022/04/05 01:07:34;;;;;;;13.57;6.33;;;;;;;2.76;100.00;95563.69;5110408;28;20495;-74
2022/04/05 01:10:00;;;;;;;10.67;6.67;;;;;;;2.84;100.00;95557.84;5090855;28;20465;-75
2022/04/05 01:12:26;;;;;;;10.33;5.77;;;;;;;2.83;100.00;95558.78;5109675;28;20448;-75
2022/04/05 01:14:52;;;;;;;10.57;6.53;;;;;;;2.83;100.00;95553.59;5109789;28;20027;-75
2022/04/05 01:17:19;;;;;;;9.37;6.37;;;;;;;2.83;100.00;95549.22;5110047;28;20560;-75
2022/04/05 01:19:47;;;;;;;11.37;5.40;;;;;;;2.78;100.00;95547.94;5105230;27;20469;-75
2022/04/05 01:22:13;;;;;;;9.33;5.53;;;;;;;2.79;100.00;95547.03;5117529;28;20485;-75
2022/04/05 01:24:39;;;;;;;16.43;6.90;;;;;;;2.80;100.00;95546.06;5103308;28;20520;-75
2022/04/05 01:27:06;;;;;;;10.53;6.10;;;;;;;2.73;100.00;95556.13;5103198;27;20465;-75
2022/04/05 01:29:32;;;;;;;11.63;6.73;;;;;;;2.75;100.00;95551.66;5112716;27;20030;-75
2022/04/05 01:32:08;;;;;;;12.27;6.90;;;;;;;2.81;100.00;95545.09;5106643;27;20574;-75
2022/04/05 01:34:35;;;;;;;9.33;5.90;;;;;;;2.84;100.00;95539.66;5111970;27;20595;-75
2022/04/05 01:37:04;;;;;;;8.93;5.87;;;;;;;2.84;100.00;95531.88;5113432;27;20465;-74
2022/04/05 01:39:32;;;;;;;11.37;5.70;;;;;;;2.81;100.00;95538.13;5102535;27;20444;-76
2022/04/05 01:42:05;;;;;;;11.23;6.30;;;;;;;2.79;100.00;95537.47;5109430;27;21100;-74
2022/04/05 01:44:32;;;;;;;12.97;7.30;;;;;;;2.80;100.00;95533.09;5105213;27;20503;-74
2022/04/05 01:47:03;;;;;;;10.97;6.67;;;;;;;2.79;100.00;95534.03;5102078;27;20477;-75
2022/04/05 01:49:29;;;;;;;9.63;6.13;;;;;;;2.77;100.00;95528.97;5109659;27;20483;-75
2022/04/05 01:51:55;;;;;;;10.30;5.97;;;;;;;2.74;100.00;95536.19;5114270;27;21051;-75
2022/04/05 01:54:21;;;;;;;10.33;5.77;;;;;;;2.77;100.00;95538.53;5121292;27;20404;-75
2022/04/05 01:56:48;;;;;;;9.27;5.73;;;;;;;2.74;100.00;95536.19;5111186;27;20408;-75
2022/04/05 01:59:19;;;;;;;12.63;6.97;;;;;;;2.74;100.00;95531.00;5112997;27;20080;-75
2022/04/05 02:01:45;;;;;;;11.53;6.27;;;;;;;2.73;100.00;95530.19;5112278;27;20868;-75
2022/04/05 02:04:12;;;;;;;9.53;6.00;;;;;;;2.72;100.00;95532.91;5111489;27;20462;-75
2022/04/05 02:06:39;;;;;;;11.83;7.10;;;;;;;2.76;100.00;95531.69;5120605;27;20474;-75
2022/04/05 02:09:06;;;;;;;10.17;6.13;;;;;;;2.71;100.00;95528.66;5110349;27;22229;-75
2022/04/05 02:11:34;;;;;;;12.13;5.93;;;;;;;2.71;100.00;95524.28;5126932;27;20468;-76
2022/04/05 02:14:08;;;;;;;12.47;6.80;;;;;;;2.69;100.00;95525.38;5108586;27;20493;-75
2022/04/05 02:16:34;;;;;;;11.40;6.70;;;;;;;2.70;100.00;95524.41;5104357;27;20879;-75
2022/04/05 02:19:02;;;;;;;10.47;6.30;;;;;;;2.72;100.00;95527.72;5092351;28;20469;-75
2022/04/05 02:21:28;;;;;;;10.77;6.40;;;;;;;2.70;100.00;95530.44;5131432;27;20498;-76
2022/04/05 02:23:56;;;;;;;12.53;6.57;;;;;;;2.69;100.00;95534.00;5108742;28;20561;-75
2022/04/05 02:26:27;;;;;;;11.40;6.60;;;;;;;2.68;100.00;95534.09;5098734;28;20479;-76
2022/04/05 02:28:54;;;;;;;9.87;6.57;;;;;;;2.72;100.00;95538.09;5111179;27;20460;-76
2022/04/05 02:31:24;;;;;;;10.00;6.13;;;;;;;2.70;100.00;95527.00;5093760;27;21071;-76
2022/04/05 02:33:52;;;;;;;9.77;5.70;;;;;;;2.70;100.00;95527.00;5114770;27;20480;-76
2022/04/05 02:36:38;;;;;;;12.63;6.83;;;;;;;2.71;100.00;95528.66;5102161;27;20566;-75
2022/04/05 02:39:07;;;;;;;9.70;6.33;;;;;;;2.73;100.00;95521.56;5089424;27;20472;-75
2022/04/05 02:41:34;;;;;;;10.73;6.47;;;;;;;2.75;100.00;95522.25;5106169;27;20453;-76
2022/04/05 02:44:00;;;;;;;11.67;6.47;;;;;;;2.68;100.00;95529.72;5118101;27;20461;-75
2022/04/05 02:46:27;;;;;;;14.37;7.33;;;;;;;2.73;100.00;95534.56;5113581;27;20438;-76
2022/04/05 02:48:54;;;;;;;9.13;5.60;;;;;;;2.75;100.00;95530.88;5112115;27;20495;-75
2022/04/05 02:51:29;;;;;;;12.07;7.67;;;;;;;2.75;100.00;95522.25;5118572;27;20537;-76
2022/04/05 02:53:59;;;;;;;13.37;6.60;;;;;;;2.70;100.00;95527.00;5116412;27;20473;-76
2022/04/05 02:56:25;;;;;;;8.93;5.73;;;;;;;2.75;100.00;95527.44;5109990;27;20501;-76
2022/04/05 02:58:53;;;;;;;10.93;6.43;;;;;;;2.72;100.00;95520.75;5112042;27;20880;-76
2022/04/05 03:01:19;;;;;;;10.43;6.23;;;;;;;2.74;100.00;95528.41;5113887;27;21680;-75
2022/04/05 03:03:47;;;;;;;9.77;6.57;;;;;;;2.73;100.00;95522.38;5109209;27;20492;-75
2022/04/05 03:06:14;;;;;;;11.47;7.10;;;;;;;2.70;100.00;95529.63;5102706;27;20468;-75
2022/04/05 03:08:41;;;;;;;9.83;7.00;;;;;;;2.69;100.00;95533.16;5112453;27;20555;-75
2022/04/05 03:11:09;;;;;;;13.00;6.80;;;;;;;2.71;100.00;95524.28;5093630;28;20489;-76
2022/04/05 03:13:36;;;;;;;9.87;5.93;;;;;;;2.69;100.00;95544.38;5110966;27;20506;-75
2022/04/05 03:16:03;;;;;;;10.97;7.10;;;;;;;2.69;100.00;95540.97;5105693;27;20501;-76
2022/04/05 03:18:29;;;;;;;11.60;7.43;;;;;;;2.60;100.00;95540.75;5096437;27;20476;-75
2022/04/05 03:20:55;;;;;;;12.07;7.23;;;;;;;2.63;100.00;95523.28;5115250;27;20448;-76
2022/04/05 03:23:21;;;;;;;9.50;6.40;;;;;;;2.68;100.00;95528.91;5113250;27;20031;-75
2022/04/05 03:25:49;;;;;;;11.33;6.40;;;;;;;2.59;100.00;95520.94;5111643;27;20046;-76
2022/04/05 03:28:18;;;;;;;13.13;6.97;;;;;;;2.58;100.00;95521.91;5109784;27;20506;-75
2022/04/05 03:30:47;;;;;;;12.00;6.73;;;;;;;2.56;100.00;95526.38;5101840;27;20474;-75
2022/04/05 03:33:15;;;;;;;12.73;7.13;;;;;;;2.52;100.00;95530.19;5120058;27;20504;-75
2022/04/05 03:35:41;;;;;;;11.17;7.13;;;;;;;2.55;100.00;95529.94;5106900;27;20885;-76
2022/04/05 03:38:07;;;;;;;11.63;7.10;;;;;;;2.50;100.00;95516.50;5115189;27;20572;-73
2022/04/05 03:40:33;;;;;;;11.57;6.97;;;;;;;2.57;100.00;95522.84;5090005;28;20545;-75
2022/04/05 03:43:01;;;;;;;13.83;7.97;;;;;;;2.52;100.00;95530.19;5107166;27;20588;-74
2022/04/05 03:45:28;;;;;;;14.33;9.00;;;;;;;2.49;100.00;95533.03;5112704;27;20543;-75
2022/04/05 03:47:54;;;;;;;11.30;7.33;;;;;;;2.47;100.00;95534.94;5117298;27;20818;-74
2022/04/05 03:50:20;;;;;;;9.83;6.47;;;;;;;2.53;100.00;95528.41;5106968;28;20444;-75
2022/04/05 03:52:47;;;;;;;12.87;7.97;;;;;;;2.49;100.00;95521.84;5094356;27;20027;-76
2022/04/05 03:55:20;;;;;;;13.13;7.13;;;;;;;2.48;100.00;95521.03;5121092;27;20456;-75
2022/04/05 03:57:49;;;;;;;10.53;7.03;;;;;;;2.44;100.00;95530.00;5106503;27;20461;-75
2022/04/05 04:00:17;;;;;;;10.80;6.93;;;;;;;2.48;100.00;95531.41;5096336;27;21109;-74
2022/04/05 04:02:50;;;;;;;12.18;8.00;;;;;;;2.46;100.00;95517.72;5100674;27;20509;-75
2022/04/05 04:05:20;;;;;;;15.03;8.67;;;;;;;2.44;100.00;95526.59;5114719;27;20442;-76
2022/04/05 04:07:48;;;;;;;13.60;8.70;;;;;;;2.39;100.00;95518.38;5109428;27;20377;-74
2022/04/05 04:10:14;;;;;;;13.50;7.80;;;;;;;2.34;100.00;95516.13;5122605;27;20444;-75
2022/04/05 04:12:40;;;;;;;12.13;7.40;;;;;;;2.21;100.00;95523.28;5102973;27;20568;-76
2022/04/05 04:15:07;;;;;;;18.80;7.93;;;;;;;2.21;100.00;95521.50;5095751;28;20446;-75
2022/04/05 04:17:33;;;;;;;11.67;7.83;;;;;;;2.20;100.00;95519.03;5109005;27;20030;-75
2022/04/05 04:20:00;;;;;;;12.13;7.90;;;;;;;2.18;100.00;95526.13;5084927;28;20477;-76
2022/04/05 04:22:29;;;;;;;13.63;8.60;;;;;;;2.16;100.00;95522.84;5091059;27;20490;-76
2022/04/05 04:24:57;;;;;;;13.67;8.00;;;;;;;2.18;100.00;95521.78;5103054;27;20469;-76
2022/04/05 04:27:25;;;;;;;12.80;7.80;;;;;;;2.22;100.00;95532.72;5095411;27;20477;-75
2022/04/05 04:29:51;;;;;;;12.43;8.53;;;;;;;2.18;100.00;95521.78;5108543;27;20461;-76
2022/04/05 04:32:17;;;;;;;13.93;9.40;;;;;;;2.12;100.00;95533.47;5113460;27;20496;-76
2022/04/05 04:34:42;;;;;;;12.30;8.13;;;;;;;2.10;100.00;95535.34;5106969;27;20469;-73
2022/04/05 04:37:08;;;;;;;14.00;8.07;;;;;;;2.06;100.00;95528.78;5098730;28;20046;-76
2022/04/05 04:39:35;;;;;;;14.33;8.33;;;;;;;2.06;100.00;95528.78;5106275;27;20515;-75
2022/04/05 04:42:01;;;;;;;15.33;8.53;;;;;;;2.08;100.00;95532.06;5104370;27;20484;-76
2022/04/05 04:44:27;;;;;;;13.63;8.97;;;;;;;2.12;100.00;95525.69;5114023;27;20481;-74
2022/04/05 04:46:53;;;;;;;15.00;8.90;;;;;;;2.07;100.00;95525.22;5112639;27;20476;-75
2022/04/05 04:49:18;;;;;;;13.40;8.73;;;;;;;2.07;100.00;95527.81;5105195;28;20037;-74
2022/04/05 04:51:44;;;;;;;11.17;7.93;;;;;;;2.07;100.00;95524.41;5112165;27;20031;-75
2022/04/05 04:54:10;;;;;;;11.53;8.47;;;;;;;2.09;100.00;95535.50;5097789;28;20050;-76
2022/04/05 04:56:36;;;;;;;13.27;8.57;;;;;;;2.07;100.00;95535.59;5106907;28;20488;-76
2022/04/05 04:59:01;;;;;;;15.13;9.97;;;;;;;2.04;100.00;95535.84;5081978;27;20034;-75
2022/04/05 05:01:27;;;;;;;13.40;8.43;;;;;;;2.08;100.00;95532.06;5108227;28;20042;-75
2022/04/05 05:03:53;;;;;;;18.30;8.70;;;;;;;2.17;100.00;95529.66;5101872;28;20031;-75
2022/04/05 05:06:19;;;;;;;14.43;8.67;;;;;;;2.12;100.00;95538.66;5105839;28;20039;-76
2022/04/05 05:08:44;;;;;;;13.50;9.37;;;;;;;2.11;100.00;95537.00;5096718;28;20031;-76
2022/04/05 05:11:11;;;;;;;12.53;8.70;;;;;;;2.15;100.00;95536.75;5105885;28;20042;-76
2022/04/05 05:13:37;;;;;;;12.60;8.57;;;;;;;2.17;100.00;95534.84;5098081;28;20481;-76
2022/04/05 05:16:03;;;;;;;11.83;8.30;;;;;;;2.18;100.00;95539.09;5105683;28;20471;-75
2022/04/05 05:18:29;;;;;;;16.13;9.53;;;;;;;2.16;100.00;95538.41;5105928;28;20089;-76
2022/04/05 05:20:55;;;;;;;11.57;8.17;;;;;;;2.22;100.00;95532.72;5113641;28;20468;-75
2022/04/05 05:23:21;;;;;;;11.13;8.20;;;;;;;2.19;100.00;95538.16;5107717;28;20498;-76
2022/04/05 05:25:48;;;;;;;12.80;9.17;;;;;;;2.22;100.00;95530.13;5099877;28;20044;-76
2022/04/05 05:28:14;;;;;;;21.23;9.93;;;;;;;2.21;100.00;95542.25;5085692;28;20038;-75
2022/04/05 05:30:40;;;;;;;12.47;8.53;;;;;;;2.25;100.00;95548.03;5090667;28;20464;-75
2022/04/05 05:33:06;;;;;;;14.43;9.77;;;;;;;2.27;100.00;95540.94;5108714;28;20422;-75
2022/04/05 05:35:33;;;;;;;15.20;9.80;;;;;;;2.27;100.00;95548.72;5101754;28;20027;-76
2022/04/05 05:37:59;;;;;;;15.17;8.23;;;;;;;2.26;100.00;95547.09;5088798;28;20043;-76
2022/04/05 05:40:25;;;;;;;13.60;8.40;;;;;;;2.27;100.00;95546.94;5106495;28;20466;-75
2022/04/05 05:42:57;;;;;;;12.00;8.30;;;;;;;2.30;100.00;95538.91;5089003;28;20488;-74
2022/04/05 05:45:24;;;;;;;15.00;8.43;;;;;;;2.30;100.00;95551.06;5098552;28;20485;-75
2022/04/05 05:47:50;;;;;;;12.00;8.53;;;;;;;2.32;100.00;95549.19;5105535;28;20503;-75
2022/04/05 05:50:17;;;;;;;13.57;8.57;;;;;;;2.40;100.00;95551.97;5105841;27;20485;-75
2022/04/05 05:52:44;;;;;;;13.67;8.07;;;;;;;2.36;100.00;95553.16;5102209;28;20015;-75
2022/04/05 05:55:11;;;;;;;13.53;8.80;;;;;;;2.31;100.00;95552.72;5106671;28;20464;-75
2022/04/05 05:57:38;;;;;;;12.67;8.53;;;;;;;2.36;100.00;95546.19;5111303;28;20475;-74
2022/04/05 06:00:07;;;;;;;12.83;8.37;;;;;;;2.40;100.00;95553.75;5111664;27;21001;-75
2022/04/05 06:02:41;;;;;;;10.63;6.75;;;;;;;2.39;100.00;95559.88;5099051;28;20430;-75
2022/04/05 06:05:08;;;;;;;13.23;8.07;;;;;;;2.39;100.00;95565.06;5108346;28;20114;-74
2022/04/05 06:07:34;;;;;;;13.33;9.07;;;;;;;2.40;100.00;95567.53;5100147;28;20502;-76
2022/04/05 06:10:02;;;;;;;14.17;8.63;;;;;;;2.38;100.00;95573.78;5099571;27;21079;-75
2022/04/05 06:12:27;;;;;;;13.63;8.50;;;;;;;2.40;100.00;95567.53;5104760;27;20460;-76
2022/04/05 06:14:53;;;;;;;11.67;8.40;;;;;;;2.44;100.00;95574.09;5123835;27;20445;-76
2022/04/05 06:17:19;;;;;;;14.27;8.13;;;;;;;2.45;100.00;95564.53;5111613;27;20078;-75
2022/04/05 06:19:45;;;;;;;13.47;8.00;;;;;;;2.46;100.00;95567.03;5087470;28;20043;-74
2022/04/05 06:22:12;;;;;;;12.93;8.00;;;;;;;2.44;100.00;95579.31;5112630;27;20080;-76
2022/04/05 06:24:38;;;;;;;12.37;8.07;;;;;;;2.49;100.00;95571.97;5101159;27;20473;-75
2022/04/05 06:27:05;;;;;;;11.63;8.60;;;;;;;2.60;100.00;95573.69;5108612;27;20863;-74
2022/04/05 06:29:32;;;;;;;12.90;8.90;;;;;;;2.54;100.00;95567.22;5095666;27;20458;-75
2022/04/05 06:31:57;;;;;;;12.70;8.33;;;;;;;2.59;100.00;95580.66;5103934;27;20454;-75
2022/04/05 06:34:25;;;;;;;13.43;9.53;;;;;;;2.60;100.00;95579.69;5103497;27;20437;-76
2022/04/05 06:36:51;;;;;;;18.90;10.87;;;;;;;2.66;100.00;95572.38;5108991;27;20034;-74
2022/04/05 06:39:17;;;;;;;18.30;10.80;;;;;;;2.59;100.00;95569.44;5098663;27;20845;-75
2022/04/05 06:41:43;;;;;;;19.60;11.03;;;;;;;2.61;100.00;95580.50;5097115;28;20453;-74
2022/04/05 06:44:08;;;;;;;14.50;9.20;;;;;;;2.63;100.00;95570.84;5107045;27;20020;-75
2022/04/05 06:46:34;;;;;;;17.37;10.70;;;;;;;2.65;100.00;95575.88;5109328;27;20032;-75
2022/04/05 06:49:00;;;;;;;15.13;10.33;;;;;;;2.67;100.00;95574.00;5108654;27;20034;-75
2022/04/05 06:51:26;;;;;;;14.17;8.03;;;;;;;2.72;100.00;95579.66;5116039;27;20040;-75
2022/04/05 06:53:52;;;;;;;12.40;8.47;;;;;;;2.72;100.00;95575.28;5106535;27;20085;-76
2022/04/05 06:56:21;;;;;;;12.33;8.30;;;;;;;2.75;100.00;95577.63;5105793;27;20126;-74
2022/04/05 06:58:48;;;;;;;17.10;10.10;;;;;;;2.75;100.00;95582.81;5109184;27;20476;-74
2022/04/05 07:01:14;;;;;;;16.37;11.03;;;;;;;2.76;100.00;95586.22;5107967;27;20035;-74
2022/04/05 07:03:40;;;;;;;15.60;9.63;;;;;;;2.80;100.00;95582.41;5109738;27;20502;-75
2022/04/05 07:06:06;;;;;;;12.30;8.83;;;;;;;2.82;100.00;95577.94;5113859;27;20031;-75
2022/04/05 07:08:31;;;;;;;12.17;8.50;;;;;;;2.88;100.00;95584.38;5107167;27;20035;-76
2022/04/05 07:10:57;;;;;;;12.87;7.43;;;;;;;2.89;100.00;95578.25;5102721;27;20148;-74
2022/04/05 07:13:23;;;;;;;14.07;7.80;;;;;;;2.91;100.00;95586.72;5107196;27;20030;-75
2022/04/05 07:15:48;;;;;;;10.73;7.47;;;;;;;2.98;100.00;95577.44;5108019;27;20492;-73
2022/04/05 07:18:14;;;;;;;11.37;8.00;;;;;;;2.98;100.00;95580.88;5111288;27;20031;-74
2022/04/05 07:20:40;;;;;;;11.17;7.17;;;;;;;2.96;100.00;95575.00;5098064;27;20975;-75
2022/04/05 07:23:06;;;;;;;14.63;7.30;;;;;;;3.06;100.00;95575.88;5102384;27;20054;-74
2022/04/05 07:25:38;;;;;;;12.67;8.37;;;;;;;3.09;100.00;95568.78;5109189;27;20520;-75
2022/04/05 07:28:04;;;;;;;9.73;7.00;;;;;;;3.15;100.00;95573.44;5086289;28;20043;-75
2022/04/05 07:30:30;;;;;;;13.30;7.63;;;;;;;3.13;100.00;95560.59;5104895;27;20467;-76
2022/04/05 07:32:56;;;;;;;13.03;7.70;;;;;;;3.09;100.00;95569.59;5114991;27;20457;-76
2022/04/05 07:35:22;;;;;;;11.63;7.90;;;;;;;3.15;100.00;95565.63;5105722;27;20016;-75
2022/04/05 07:37:48;;;;;;;13.90;7.63;;;;;;;3.22;100.00;95566.75;5117275;27;20031;-75
2022/04/05 07:40:15;;;;;;;11.63;8.17;;;;;;;3.26;100.00;95578.56;5104523;27;20082;-76
2022/04/05 07:42:42;;;;;;;12.73;7.60;;;;;;;3.25;100.00;95562.16;5110052;27;20453;-76
2022/04/05 07:45:09;;;;;;;11.93;8.50;;;;;;;3.30;100.00;95566.94;5101293;27;20455;-74
2022/04/05 07:47:36;;;;;;;13.63;9.37;;;;;;;3.29;100.00;95565.31;5102817;27;20465;-76
2022/04/05 07:50:02;;;;;;;12.17;7.47;;;;;;;3.38;100.00;95564.50;5102524;27;20437;-74
2022/04/05 07:52:28;;;;;;;10.30;7.00;;;;;;;3.39;100.00;95567.94;5105388;27;21051;-75
2022/04/05 07:54:53;;;;;;;11.20;7.23;;;;;;;3.45;100.00;95565.63;5109808;27;20027;-73
2022/04/05 07:57:19;;;;;;;10.80;6.90;;;;;;;3.51;100.00;95567.69;5109895;27;20481;-74
2022/04/05 07:59:45;;;;;;;11.53;7.50;;;;;;;3.51;100.00;95575.50;5108298;27;20086;-75
2022/04/05 08:02:11;;;;;;;11.63;7.87;;;;;;;3.55;100.00;95581.25;5099592;27;20035;-75
2022/04/05 08:04:36;;;;;;;10.87;7.07;;;;;;;3.66;100.00;95577.75;5110899;27;20031;-75
2022/04/05 08:07:02;;;;;;;11.33;8.03;;;;;;;3.72;100.00;95582.38;5106564;27;20096;-73
2022/04/05 08:09:28;;;;;;;12.77;6.77;;;;;;;3.69;100.00;95575.69;5089487;28;20499;-74
2022/04/05 08:11:54;;;;;;;12.37;7.33;;;;;;;3.74;100.00;95581.31;5100321;27;20020;-75
2022/04/05 08:14:19;;;;;;;9.93;6.87;;;;;;;3.76;100.00;95573.38;5103256;27;20024;-75
2022/04/05 08:16:45;;;;;;;12.73;6.90;;;;;;;3.69;100.00;95582.66;5107700;27;20505;-75
2022/04/05 08:19:11;;;;;;;11.07;6.70;;;;;;;3.71;100.00;95578.97;5107359;27;20023;-75
2022/04/05 08:21:38;;;;;;;10.27;6.90;;;;;;;3.71;100.00;95591.16;5109762;27;20028;-75
2022/04/05 08:24:04;;;;;;;11.40;6.80;;;;;;;3.67;100.00;95593.19;5103993;27;20024;-75
2022/04/05 08:26:31;;;;;;;9.23;6.23;;;;;;;3.71;100.00;95596.34;5107235;27;20441;-75
2022/04/05 08:28:56;;;;;;;11.23;6.57;;;;;;;3.78;100.00;95597.47;5111300;27;20700;-75
2022/04/05 08:31:23;;;;;;;10.23;6.37;;;;;;;3.79;100.00;95599.13;5093177;28;20035;-75
2022/04/05 08:33:49;;;;;;;12.00;6.60;;;;;;;3.87;100.00;95608.84;5099142;27;20042;-74
2022/04/05 08:36:15;;;;;;;10.73;6.87;;;;;;;3.81;100.00;95606.78;5109321;27;20043;-75
2022/04/05 08:38:41;;;;;;;13.63;9.43;;;;;;;3.87;100.00;95606.25;5111222;27;20031;-75
2022/04/05 08:41:08;;;;;;;12.47;7.73;;;;;;;3.81;100.00;95612.81;5103136;27;20827;-75
2022/04/05 08:43:35;;;;;;;11.07;5.67;;;;;;;3.83;100.00;95605.69;5103934;27;20046;-74
2022/04/05 08:46:03;;;;;;;15.23;7.47;;;;;;;3.98;100.00;95608.72;5077542;27;20076;-75
2022/04/05 08:48:34;;;;;;;11.20;6.63;;;;;;;4.02;100.00;95610.09;5114098;27;20375;-75
2022/04/05 08:51:00;;;;;;;12.10;7.27;;;;;;;4.04;100.00;95610.81;5104667;27;20070;-75
2022/04/05 08:53:25;;;;;;;10.90;6.40;;;;;;;4.14;100.00;95605.63;5106126;27;20060;-74
2022/04/05 08:55:51;;;;;;;9.77;6.93;;;;;;;4.13;100.00;95615.22;5105906;27;20031;-75
2022/04/05 08:58:18;;;;;;;9.43;5.80;;;;;;;4.22;100.00;95616.97;5111238;27;20027;-75
2022/04/05 09:00:44;;;;;;;10.13;6.27;;;;;;;4.23;100.00;95612.63;5089143;28;20086;-75
2022/04/05 09:03:09;;;;;;;9.77;6.10;;;;;;;4.28;100.00;95622.63;5111516;27;20412;-75
2022/04/05 09:05:37;;;;;;;12.50;7.03;;;;;;;4.40;100.00;95617.16;5108416;28;20046;-75
2022/04/05 09:08:23;;;;;;;12.07;6.87;;;;;;;4.34;100.00;95615.09;5103683;28;20043;-75
2022/04/05 09:10:54;;;;;;;11.33;6.67;;;;;;;4.41;100.00;95610.16;5102073;28;20571;-74
2022/04/05 09:13:25;;;;;;;12.83;7.17;;;;;;;4.52;100.00;95617.00;5097406;28;20090;-74
2022/04/05 09:15:54;;;;;;;10.53;5.93;;;;;;;4.52;100.00;95617.00;5085122;28;20028;-75
2022/04/05 09:18:31;;;;;;;11.47;6.80;;;;;;;4.70;100.00;95617.97;5085411;28;20035;-75
2022/04/05 09:20:56;;;;;;;10.67;6.03;;;;;;;4.69;100.00;95618.91;5106293;28;20028;-75
2022/04/05 09:23:23;;;;;;;10.63;6.60;;;;;;;4.54;100.00;95620.31;5103599;28;20031;-75
2022/04/05 09:25:58;;;;;;;13.13;6.57;;;;;;;4.55;100.00;95622.75;5104064;28;20400;-75
2022/04/05 09:28:37;;;;;;;10.40;6.63;;;;;;;4.44;100.00;95615.91;5104639;28;20035;-75
2022/04/05 09:31:07;;;;;;;12.07;6.80;;;;;;;4.45;100.00;95622.75;5106588;28;20400;-75
2022/04/05 09:33:35;;;;;;;9.83;7.00;;;;;;;4.44;100.00;95622.91;5103321;28;20039;-76
2022/04/05 09:36:13;;;;;;;14.30;7.70;;;;;;;4.40;100.00;95624.16;5103820;28;20416;-75
2022/04/05 09:38:42;;;;;;;9.63;5.80;;;;;;;4.44;100.00;95618.53;5111998;28;20535;-76
2022/04/05 09:41:14;;;;;;;13.07;6.43;;;;;;;4.51;100.00;95626.59;5105814;28;20934;-75
2022/04/05 09:44:01;;;;;;;11.17;6.93;;;;;;;4.53;100.00;95632.50;5116133;28;20071;-73
2022/04/05 09:46:28;;;;;;;12.53;6.93;;;;;;;4.53;100.00;95624.69;5125240;27;20728;-74
2022/04/05 09:49:03;;;;;;;11.43;6.43;;;;;;;4.63;100.00;95619.50;5111582;27;20035;-74
2022/04/05 09:51:35;;;;;;;10.47;6.97;;;;;;;4.60;100.00;95614.56;5098845;27;20066;-75
2022/04/05 09:54:01;;;;;;;14.83;8.60;;;;;;;4.73;100.00;95617.72;5108537;27;20027;-75
2022/04/05 09:56:31;;;;;;;13.47;7.83;;;;;;;4.88;100.00;95612.88;5118529;27;20711;-75
2022/04/05 09:59:06;;;;;;;11.23;7.00;;;;;;;5.03;100.00;95615.84;5108870;27;20031;-75
2022/04/05 10:01:35;;;;;;;12.60;7.73;;;;;;;5.04;100.00;95617.53;5108487;27;20063;-75
2022/04/05 10:04:05;;;;;;;10.83;6.90;;;;;;;5.02;100.00;95619.44;5102797;27;20027;-75
2022/04/05 10:06:33;;;;;;;11.83;7.10;;;;;;;5.04;100.00;95609.72;5104510;27;20031;-74
2022/04/05 10:09:00;;;;;;;13.97;8.47;;;;;;;4.88;100.00;95613.69;5108383;27;20052;-75
2022/04/05 10:11:29;;;;;;;17.73;9.07;;;;;;;5.01;100.00;95613.41;5089372;27;20515;-75
2022/04/05 10:13:56;;;;;;;9.63;6.13;;;;;;;5.04;100.00;95612.31;5080364;28;20059;-75
2022/04/05 10:16:26;;;;;;;10.20;6.87;;;;;;;5.02;100.00;95612.44;5106303;27;20035;-75
2022/04/05 10:18:56;;;;;;;10.57;6.50;;;;;;;5.20;100.00;95615.16;5115453;27;20027;-76
2022/04/05 10:21:25;;;;;;;12.10;7.10;;;;;;;5.30;100.00;95610.75;5103158;27;20028;-75
2022/04/05 10:23:55;;;;;;;11.53;6.60;;;;;;;5.29;100.00;95614.28;5110094;27;20571;-75
2022/04/05 10:26:24;;;;;;;10.03;6.37;;;;;;;5.34;100.00;95617.31;5099901;27;20775;-75
2022/04/05 10:28:52;;;;;;;10.63;6.90;;;;;;;5.30;100.00;95612.50;5114105;27;20039;-75
2022/04/05 10:31:41;;;;;;;9.50;6.40;;;;;;;5.30;100.00;95608.13;5108556;27;20028;-75
2022/04/05 10:34:14;;;;;;;13.50;7.93;;;;;;;5.31;100.00;95619.38;5088898;28;20032;-74
2022/04/05 10:37:00;;;;;;;12.02;6.20;;;;;;;5.44;100.00;95601.63;5114393;27;20073;-74
2022/04/05 10:39:26;;;;;;;11.43;6.87;;;;;;;5.50;100.00;95608.03;5089356;27;20043;-75
2022/04/05 10:42:13;;;;;;;11.57;6.70;;;;;;;5.66;100.00;95600.44;5110365;27;20473;-75
2022/04/05 10:44:46;;;;;;;13.20;7.17;;;;;;;5.57;100.00;95598.69;5106667;27;20039;-75
2022/04/05 10:47:15;;;;;;;11.85;6.25;;;;;;;5.67;100.00;95599.47;5100833;27;20020;-76
2022/04/05 10:49:49;;;;;;;10.63;5.77;;;;;;;5.77;100.00;95600.25;5117754;27;20063;-76
2022/04/05 10:52:25;;;;;;;9.73;5.80;;;;;;;5.83;100.00;95604.88;5110776;27;20039;-76
2022/04/05 10:55:21;;;;;;;11.83;5.90;;;;;;;5.86;100.00;95608.97;5107930;27;20031;-76
2022/04/05 10:57:48;;;;;;;9.90;5.73;;;;;;;5.83;100.00;95610.09;5111720;27;20080;-77
2022/04/05 11:00:19;;;;;;;11.83;6.30;;;;;;;5.77;100.00;95602.84;5105876;27;20054;-77
2022/04/05 11:02:51;;;;;;;13.90;6.83;;;;;;;5.73;100.00;95605.88;5104661;27;20035;-77
2022/04/05 11:05:19;;;;;;;9.83;6.07;;;;;;;5.86;100.00;95609.78;5100177;27;20096;-77
2022/04/05 11:07:54;;;;;;;11.57;6.40;;;;;;;6.01;100.00;95612.78;5100022;27;20125;-76
2022/04/05 11:10:25;;;;;;;10.20;6.27;;;;;;;6.10;100.00;95611.06;5093531;28;20032;-78
2022/04/05 11:13:03;;;;;;;10.70;6.30;;;;;;;6.30;100.00;95611.75;5109788;27;20031;-78
2022/04/05 11:15:49;;;;;;;8.20;5.60;;;;;;;6.25;100.00;95607.00;5110969;27;20035;-77
2022/04/05 11:18:18;;;;;;;11.53;6.03;;;;;;;6.34;100.00;95613.13;5095305;27;20389;-78
2022/04/05 11:20:45;;;;;;;12.33;6.33;;;;;;;6.52;100.00;95618.34;5111271;27;20042;-78
2022/04/05 11:23:13;;;;;;;9.33;5.77;;;;;;;6.52;100.00;95615.75;5119555;27;20106;-78
2022/04/05 11:25:39;;;;;;;9.87;5.97;;;;;;;6.63;100.00;95612.91;5112426;27;20858;-78
2022/04/05 11:28:21;;;;;;;11.03;6.37;;;;;;;6.65;100.00;95624.03;5108583;27;20027;-77
2022/04/05 11:31:02;;;;;;;10.57;5.60;;;;;;;6.47;100.00;95607.53;5107935;27;20035;-78